Time;durP1;ratioP1;P1;durP2;ratioP2;P2;SDS_P1;SDS_P2;PMS_P1;PMS_P2;Temp;Humidity;BMP_temperature;BMP_pressure;BME280_temperature;BME280_humidity;BME280_pressure;Samples;Min_cycle;Max_cycle;Signal;HPM_P1;HPM_P2
2022/03/18 00:02:23;;;;;;;8.80;4.25;;;5.00;99.90;;;;;;5055961;28;20022;-51
2022/03/18 00:04:50;;;;;;;18.52;4.80;;;4.90;99.90;;;;;;5057096;28;20032;-50
2022/03/18 00:07:16;;;;;;;12.60;4.13;;;4.90;99.90;;;;;;5056089;28;20027;-51
2022/03/18 00:09:42;;;;;;;19.30;5.28;;;5.00;99.90;;;;;;5056342;28;20040;-55
2022/03/18 00:12:09;;;;;;;14.32;3.95;;;5.00;99.90;;;;;;5055753;28;20017;-54
2022/03/18 00:14:35;;;;;;;9.75;3.95;;;5.00;99.90;;;;;;5057080;28;20078;-53
2022/03/18 00:17:01;;;;;;;7.90;3.67;;;5.00;99.90;;;;;;5055628;28;20021;-57
2022/03/18 00:19:27;;;;;;;15.05;3.55;;;5.00;99.90;;;;;;5055690;28;20056;-55
2022/03/18 00:22:00;;;;;;;9.85;3.95;;;4.90;99.90;;;;;;5056870;28;20024;-53
2022/03/18 00:24:26;;;;;;;14.43;4.47;;;4.90;99.90;;;;;;5055714;28;20119;-57
2022/03/18 00:26:51;;;;;;;11.82;4.53;;;4.90;99.90;;;;;;5055822;28;20060;-53
2022/03/18 00:29:17;;;;;;;9.93;4.55;;;4.90;99.90;;;;;;5055344;28;20037;-53
2022/03/18 00:31:43;;;;;;;11.52;3.58;;;4.90;99.90;;;;;;5055490;28;20023;-53
2022/03/18 00:34:10;;;;;;;7.50;3.35;;;4.90;99.90;;;;;;5056674;28;20021;-52
2022/03/18 00:36:37;;;;;;;6.43;2.95;;;4.90;99.90;;;;;;5056552;28;20021;-53
2022/03/18 00:39:03;;;;;;;8.90;3.53;;;4.90;99.90;;;;;;5055317;28;20025;-54
2022/03/18 00:41:29;;;;;;;7.97;3.08;;;4.90;99.90;;;;;;5056590;28;20043;-51
2022/03/18 00:43:55;;;;;;;7.57;2.92;;;4.80;99.90;;;;;;5055569;28;20040;-50
2022/03/18 00:46:22;;;;;;;8.82;3.33;;;4.90;99.90;;;;;;5056348;28;20033;-53
2022/03/18 00:54:20;;;;;;;11.90;3.67;;;4.90;99.90;;;;;;5056034;28;20024;-53
2022/03/18 00:56:46;;;;;;;11.57;3.58;;;4.80;99.90;;;;;;5056062;28;20021;-54
2022/03/18 00:59:11;;;;;;;10.93;3.40;;;4.80;99.90;;;;;;5055127;28;20029;-54
2022/03/18 01:01:38;;;;;;;10.70;4.32;;;4.70;99.90;;;;;;5056142;28;20028;-51
2022/03/18 01:04:04;;;;;;;9.07;3.33;;;4.60;99.90;;;;;;5054975;28;20025;-53
2022/03/18 01:06:31;;;;;;;10.43;4.60;;;4.60;99.90;;;;;;5056043;28;20040;-52
2022/03/18 01:08:56;;;;;;;11.70;3.67;;;4.50;99.90;;;;;;5054260;28;20036;-53
2022/03/18 01:11:22;;;;;;;8.25;3.63;;;4.50;99.90;;;;;;5055198;28;20021;-56
2022/03/18 01:13:48;;;;;;;9.90;3.00;;;4.60;99.90;;;;;;5056540;28;20052;-55
2022/03/18 01:16:13;;;;;;;9.52;3.25;;;4.60;99.90;;;;;;5054551;28;20125;-55
2022/03/18 01:18:39;;;;;;;7.57;2.95;;;4.60;99.90;;;;;;5054532;28;20032;-50
2022/03/18 01:21:05;;;;;;;8.85;2.83;;;4.60;99.90;;;;;;5055745;28;20021;-52
2022/03/18 01:23:31;;;;;;;7.03;3.28;;;4.60;99.90;;;;;;5054442;28;20536;-54
2022/03/18 01:25:57;;;;;;;11.80;3.50;;;4.50;99.90;;;;;;5055598;28;20107;-53
2022/03/18 01:28:23;;;;;;;12.25;2.78;;;4.40;99.90;;;;;;5055040;28;20052;-54
2022/03/18 01:30:48;;;;;;;10.48;3.35;;;4.30;99.90;;;;;;5055193;28;20028;-54
2022/03/18 01:33:14;;;;;;;14.30;4.15;;;4.30;99.90;;;;;;5054365;28;20044;-55
2022/03/18 01:35:40;;;;;;;9.88;3.53;;;4.30;99.90;;;;;;5055759;28;20021;-53
2022/03/18 01:38:05;;;;;;;14.15;4.40;;;4.30;99.90;;;;;;5054372;28;20071;-56
2022/03/18 01:40:31;;;;;;;9.32;3.70;;;4.20;99.90;;;;;;5055703;28;20070;-53
2022/03/18 01:42:57;;;;;;;8.05;3.15;;;4.20;99.90;;;;;;5054160;28;20033;-56
2022/03/18 01:45:24;;;;;;;8.25;3.65;;;4.20;99.90;;;;;;5055570;28;20031;-55
2022/03/18 01:47:49;;;;;;;12.23;4.28;;;4.20;99.90;;;;;;5055174;28;20120;-56
2022/03/18 01:50:15;;;;;;;10.77;3.78;;;4.30;99.90;;;;;;5054775;28;20156;-53
2022/03/18 01:52:43;;;;;;;9.73;3.40;;;4.30;99.90;;;;;;5055251;28;20028;-56
2022/03/18 01:55:09;;;;;;;8.45;2.95;;;4.20;99.90;;;;;;5054542;28;20048;-53
2022/03/18 01:57:35;;;;;;;8.85;3.60;;;4.20;99.90;;;;;;5055053;28;20029;-56
2022/03/18 02:00:02;;;;;;;8.68;3.65;;;4.30;99.90;;;;;;5055174;28;20139;-54
2022/03/18 02:02:28;;;;;;;10.07;4.00;;;4.30;99.90;;;;;;5055092;28;20021;-54
2022/03/18 02:04:56;;;;;;;10.02;4.13;;;4.30;99.90;;;;;;5054167;28;20023;-50
2022/03/18 02:07:21;;;;;;;14.50;4.13;;;4.30;99.90;;;;;;5054913;28;20045;-52
2022/03/18 02:09:47;;;;;;;9.90;3.33;;;4.30;99.90;;;;;;5053713;28;20068;-50
2022/03/18 02:12:13;;;;;;;10.25;3.63;;;4.20;99.90;;;;;;5054785;28;20017;-54
2022/03/18 02:14:43;;;;;;;10.80;4.13;;;4.00;99.90;;;;;;5054815;28;20020;-54
2022/03/18 02:17:14;;;;;;;12.05;3.38;;;4.00;99.90;;;;;;5053440;28;20021;-51
2022/03/18 02:19:41;;;;;;;6.32;2.85;;;4.00;99.90;;;;;;5053813;28;20116;-51
2022/03/18 02:22:12;;;;;;;7.88;3.15;;;4.00;99.90;;;;;;5053084;28;20025;-53
2022/03/18 02:24:39;;;;;;;10.98;3.92;;;3.90;99.90;;;;;;5054885;28;20468;-54
2022/03/18 02:27:05;;;;;;;6.68;2.95;;;3.90;99.90;;;;;;5054870;28;20036;-54
2022/03/18 02:29:32;;;;;;;11.35;3.78;;;3.90;99.90;;;;;;5053139;28;20052;-50
2022/03/18 02:31:57;;;;;;;10.77;3.22;;;4.00;99.90;;;;;;5053106;28;20027;-53
2022/03/18 02:34:23;;;;;;;7.20;3.40;;;4.00;99.90;;;;;;5053469;28;20017;-53
2022/03/18 02:36:49;;;;;;;10.43;3.78;;;4.00;99.90;;;;;;5053689;28;20031;-56
2022/03/18 02:39:15;;;;;;;12.18;4.00;;;3.90;99.90;;;;;;5055016;28;20105;-53
2022/03/18 02:41:41;;;;;;;11.48;3.42;;;3.80;99.90;;;;;;5053114;28;20123;-52
2022/03/18 02:44:07;;;;;;;9.98;4.07;;;3.90;99.90;;;;;;5054201;28;20021;-53
2022/03/18 02:46:33;;;;;;;10.63;3.97;;;3.90;99.90;;;;;;5054151;28;20035;-53
2022/03/18 02:49:00;;;;;;;13.73;3.63;;;3.90;99.90;;;;;;5054126;28;20029;-56
2022/03/18 02:51:27;;;;;;;11.18;3.47;;;3.90;99.90;;;;;;5054050;28;20437;-52
2022/03/18 02:53:52;;;;;;;7.60;3.90;;;3.90;99.90;;;;;;5052873;28;20024;-55
2022/03/18 02:56:18;;;;;;;9.35;3.80;;;3.80;99.90;;;;;;5053987;28;20025;-52
2022/03/18 02:58:44;;;;;;;11.90;4.45;;;3.80;99.90;;;;;;5053894;28;20052;-54
2022/03/18 03:01:09;;;;;;;8.90;3.90;;;3.80;99.90;;;;;;5052640;28;20029;-54
2022/03/18 03:03:35;;;;;;;16.25;5.03;;;3.80;99.90;;;;;;5052648;28;20028;-56
2022/03/18 03:08:58;;;;;;;19.42;6.05;;;3.80;99.90;;;;;;5052797;28;20037;-52
2022/03/18 03:11:24;;;;;;;15.13;5.40;;;3.80;99.90;;;;;;5053795;28;20059;-55
2022/03/18 03:13:51;;;;;;;35.92;9.38;;;3.80;99.90;;;;;;5053312;28;20029;-56
2022/03/18 03:16:19;;;;;;;24.33;8.10;;;3.80;99.90;;;;;;5052358;28;20052;-57
2022/03/18 03:18:45;;;;;;;28.75;7.22;;;3.70;99.90;;;;;;5052341;28;20017;-57
2022/03/18 03:21:11;;;;;;;18.73;6.45;;;3.70;99.90;;;;;;5052702;28;20025;-56
2022/03/18 03:23:37;;;;;;;18.70;5.50;;;3.70;99.90;;;;;;5052359;28;20027;-53
2022/03/18 03:26:02;;;;;;;19.95;5.78;;;3.70;99.90;;;;;;5052543;28;20016;-55
2022/03/18 03:28:28;;;;;;;22.83;6.38;;;3.60;99.90;;;;;;5052398;28;20035;-55
2022/03/18 03:30:54;;;;;;;25.55;6.38;;;3.70;99.90;;;;;;5053824;28;20099;-56
2022/03/18 03:33:19;;;;;;;19.65;5.40;;;3.60;99.90;;;;;;5051512;28;20027;-56
2022/03/18 03:35:45;;;;;;;16.20;5.03;;;3.60;99.90;;;;;;5053329;28;20035;-56
2022/03/18 03:38:14;;;;;;;22.05;6.05;;;3.60;99.90;;;;;;5052870;28;20067;-56
2022/03/18 03:40:40;;;;;;;21.35;6.00;;;3.50;99.90;;;;;;5052391;28;20025;-54
2022/03/18 03:43:06;;;;;;;23.85;6.63;;;3.60;99.90;;;;;;5053348;28;20032;-52
2022/03/18 03:45:32;;;;;;;12.13;4.00;;;3.50;99.90;;;;;;5051934;28;20029;-55
2022/03/18 03:47:58;;;;;;;14.88;4.40;;;3.50;99.90;;;;;;5052708;28;20025;-51
2022/03/18 03:50:23;;;;;;;11.48;4.00;;;3.60;99.90;;;;;;5051933;28;20167;-51
2022/03/18 03:52:49;;;;;;;14.88;4.55;;;3.70;99.90;;;;;;5051970;28;20029;-52
2022/03/18 03:55:14;;;;;;;14.88;4.60;;;3.70;99.90;;;;;;5053161;28;20444;-56
2022/03/18 03:57:40;;;;;;;7.82;4.10;;;3.70;99.90;;;;;;5053085;28;20017;-54
2022/03/18 04:00:09;;;;;;;12.55;4.32;;;3.70;99.90;;;;;;5051904;28;20049;-51
2022/03/18 04:02:36;;;;;;;12.07;4.88;;;3.70;99.90;;;;;;5051785;28;20506;-51
2022/03/18 04:05:07;;;;;;;24.00;6.70;;;3.70;99.90;;;;;;5053651;28;20071;-54
2022/03/18 04:07:34;;;;;;;21.88;7.75;;;3.70;99.90;;;;;;5051777;28;20049;-54
2022/03/18 04:10:01;;;;;;;14.93;6.05;;;3.60;99.90;;;;;;5053138;28;20021;-52
2022/03/18 04:12:26;;;;;;;11.68;5.32;;;3.60;99.90;;;;;;5053159;28;20404;-49
2022/03/18 04:14:52;;;;;;;16.70;5.45;;;3.60;99.90;;;;;;5053319;28;20021;-51
2022/03/18 04:17:18;;;;;;;16.42;5.60;;;3.50;99.90;;;;;;5052433;28;20071;-50
2022/03/18 04:19:43;;;;;;;13.55;4.68;;;3.50;99.90;;;;;;5053286;28;20085;-51
2022/03/18 04:22:10;;;;;;;10.10;4.90;;;3.40;99.90;;;;;;5052883;28;20472;-51
2022/03/18 04:24:35;;;;;;;20.30;5.30;;;3.40;99.90;;;;;;5052153;28;20108;-50
2022/03/18 04:27:01;;;;;;;17.67;5.93;;;3.40;99.90;;;;;;5052783;28;20116;-50
2022/03/18 04:29:27;;;;;;;16.65;6.15;;;3.40;99.90;;;;;;5053527;28;20047;-50
2022/03/18 04:31:52;;;;;;;11.88;4.90;;;3.50;99.90;;;;;;5052827;28;20024;-52
2022/03/18 04:34:18;;;;;;;14.52;5.70;;;3.40;99.90;;;;;;5052860;28;20032;-50
2022/03/18 04:36:45;;;;;;;23.23;5.78;;;3.30;99.90;;;;;;5051467;28;20021;-53
2022/03/18 04:39:10;;;;;;;9.48;4.63;;;3.30;99.90;;;;;;5052800;28;20036;-54
2022/03/18 04:41:36;;;;;;;11.68;4.70;;;3.30;99.90;;;;;;5051422;28;20029;-57
2022/03/18 04:44:02;;;;;;;15.88;5.13;;;3.20;99.90;;;;;;5053879;28;20029;-51
2022/03/18 04:46:31;;;;;;;12.23;4.80;;;3.30;99.90;;;;;;5055044;28;20047;-55
2022/03/18 04:48:58;;;;;;;14.40;6.43;;;3.20;99.90;;;;;;5056805;28;20379;-50
2022/03/18 04:51:23;;;;;;;16.90;5.45;;;3.20;99.90;;;;;;5056675;28;20087;-50
2022/03/18 04:53:49;;;;;;;16.13;5.72;;;3.20;99.90;;;;;;5055393;28;20517;-54
2022/03/18 04:58:58;;;;;;;15.68;7.32;;;3.00;99.90;;;;;;5056591;28;20064;-56
2022/03/18 05:01:25;;;;;;;13.82;4.72;;;3.10;99.90;;;;;;5054985;28;20087;-51
2022/03/18 05:03:51;;;;;;;13.02;5.07;;;3.10;99.90;;;;;;5056049;28;20036;-55
2022/03/18 05:06:17;;;;;;;14.43;5.35;;;3.10;99.90;;;;;;5054790;28;20025;-57
2022/03/18 05:08:43;;;;;;;8.15;3.95;;;3.00;99.90;;;;;;5055998;28;20029;-57
2022/03/18 05:11:08;;;;;;;11.63;4.97;;;3.00;99.90;;;;;;5056032;28;20066;-50
2022/03/18 05:13:34;;;;;;;14.88;4.82;;;3.10;99.90;;;;;;5054753;28;20037;-52
2022/03/18 05:16:00;;;;;;;16.13;5.45;;;3.00;99.90;;;;;;5054675;28;20014;-55
2022/03/18 05:18:25;;;;;;;15.07;5.05;;;3.00;99.90;;;;;;5054630;28;20025;-55
2022/03/18 05:20:51;;;;;;;20.35;5.72;;;3.00;99.90;;;;;;5054627;28;20073;-57
2022/03/18 05:23:17;;;;;;;15.02;5.53;;;3.00;99.90;;;;;;5054542;28;20479;-57
2022/03/18 05:25:43;;;;;;;20.60;7.63;;;3.00;99.90;;;;;;5055679;28;20053;-52
2022/03/18 05:28:09;;;;;;;18.83;6.35;;;3.00;99.90;;;;;;5055500;28;20079;-56
2022/03/18 05:30:35;;;;;;;12.70;5.53;;;3.10;99.90;;;;;;5054875;28;20029;-55
2022/03/18 05:33:01;;;;;;;21.92;6.47;;;3.20;99.90;;;;;;5055805;28;20044;-51
2022/03/18 05:35:26;;;;;;;14.55;5.78;;;3.20;99.90;;;;;;5055146;28;20025;-57
2022/03/18 05:37:52;;;;;;;13.82;6.45;;;3.20;99.90;;;;;;5055450;28;20048;-57
2022/03/18 05:40:18;;;;;;;16.65;5.85;;;3.30;99.90;;;;;;5054276;28;20016;-55
2022/03/18 05:42:47;;;;;;;19.35;6.32;;;3.30;99.90;;;;;;5055386;28;20025;-57
2022/03/18 05:45:14;;;;;;;13.73;5.03;;;3.30;99.90;;;;;;5055317;28;20478;-57
2022/03/18 05:47:40;;;;;;;16.83;5.13;;;3.20;99.90;;;;;;5054180;28;20017;-56
2022/03/18 05:50:07;;;;;;;16.15;5.28;;;3.20;99.90;;;;;;5053943;28;20017;-57
2022/03/18 05:52:33;;;;;;;19.95;6.88;;;3.30;99.90;;;;;;5054005;28;20025;-57
2022/03/18 05:54:59;;;;;;;17.05;5.85;;;3.40;99.90;;;;;;5055062;28;20021;-52
2022/03/18 05:57:26;;;;;;;12.63;6.03;;;3.50;99.90;;;;;;5055009;28;20024;-53
2022/03/18 05:59:53;;;;;;;11.40;4.57;;;3.60;99.90;;;;;;5055383;28;20068;-54
2022/03/18 06:02:19;;;;;;;13.05;5.68;;;3.60;99.90;;;;;;5055058;28;20095;-55
2022/03/18 06:04:46;;;;;;;10.60;5.50;;;3.80;99.90;;;;;;5055030;28;20071;-50
2022/03/18 06:07:12;;;;;;;17.58;6.55;;;3.80;99.90;;;;;;5055175;28;20029;-55
2022/03/18 06:12:22;;;;;;;18.55;5.63;;;4.00;99.90;;;;;;5055212;28;20028;-53
2022/03/18 06:14:48;;;;;;;23.70;6.30;;;4.00;99.90;;;;;;5054810;28;20021;-53
2022/03/18 06:17:14;;;;;;;18.05;6.28;;;4.10;99.90;;;;;;5053545;28;20020;-55
2022/03/18 06:19:39;;;;;;;16.75;6.10;;;4.10;99.90;;;;;;5053783;28;20388;-53
2022/03/18 06:22:05;;;;;;;16.20;5.75;;;4.20;99.90;;;;;;5053777;28;20028;-57
2022/03/18 06:24:31;;;;;;;15.07;5.30;;;4.30;99.90;;;;;;5053422;28;20145;-54
2022/03/18 06:26:57;;;;;;;20.65;5.63;;;4.40;99.90;;;;;;5053985;28;20025;-53
2022/03/18 06:29:23;;;;;;;12.77;4.65;;;4.60;99.90;;;;;;5055361;28;20033;-53
2022/03/18 06:31:49;;;;;;;10.52;4.68;;;4.70;99.90;;;;;;5053667;28;20025;-57
2022/03/18 06:34:15;;;;;;;11.88;4.18;;;4.90;99.90;;;;;;5054464;28;20021;-54
2022/03/18 06:36:41;;;;;;;14.73;5.55;;;5.00;99.90;;;;;;5053839;28;20040;-57
2022/03/18 06:39:08;;;;;;;8.77;4.13;;;5.10;99.90;;;;;;5053864;28;20029;-57
2022/03/18 06:41:34;;;;;;;17.95;5.00;;;5.30;99.90;;;;;;5054680;28;20031;-56
2022/03/18 06:44:00;;;;;;;18.00;4.57;;;5.40;99.90;;;;;;5053029;28;20036;-56
2022/03/18 06:46:26;;;;;;;15.70;4.75;;;5.40;99.90;;;;;;5054120;28;20021;-54
2022/03/18 06:48:52;;;;;;;10.90;4.82;;;5.40;99.90;;;;;;5053153;28;20028;-56
2022/03/18 06:51:18;;;;;;;14.75;5.45;;;5.50;99.90;;;;;;5053379;28;20071;-56
2022/03/18 06:53:44;;;;;;;10.20;4.57;;;5.50;99.90;;;;;;5054005;28;20017;-56
2022/03/18 06:56:12;;;;;;;13.70;4.03;;;5.50;99.90;;;;;;5052716;28;20071;-55
2022/03/18 06:58:38;;;;;;;9.10;3.88;;;5.40;99.90;;;;;;5054042;28;20025;-57
2022/03/18 07:01:04;;;;;;;14.82;4.93;;;5.50;99.90;;;;;;5053967;28;20052;-55
2022/03/18 07:03:30;;;;;;;11.32;4.50;;;5.60;99.90;;;;;;5052677;28;20033;-57
2022/03/18 07:05:56;;;;;;;14.00;3.95;;;5.70;99.90;;;;;;5053819;28;20083;-56
2022/03/18 07:08:22;;;;;;;13.35;4.45;;;5.90;99.90;;;;;;5052570;28;20071;-56
2022/03/18 07:10:47;;;;;;;16.45;4.82;;;6.10;99.90;;;;;;5054085;28;20029;-50
2022/03/18 07:13:15;;;;;;;9.30;3.88;;;6.20;99.90;;;;;;5052481;28;20021;-51
2022/03/18 07:15:40;;;;;;;11.40;4.13;;;6.40;99.90;;;;;;5052447;28;20415;-51
2022/03/18 07:18:06;;;;;;;20.65;8.55;;;6.70;99.90;;;;;;5052760;28;20029;-53
2022/03/18 07:20:33;;;;;;;10.75;5.40;;;6.80;99.90;;;;;;5052667;28;20116;-50
2022/03/18 07:23:02;;;;;;;16.58;6.68;;;7.00;99.90;;;;;;5052662;28;20025;-55
2022/03/18 07:25:28;;;;;;;8.98;4.55;;;7.20;99.90;;;;;;5052288;28;20032;-51
2022/03/18 07:27:54;;;;;;;15.30;4.80;;;7.40;99.90;;;;;;5053334;28;20036;-51
2022/03/18 07:30:19;;;;;;;14.20;5.05;;;7.50;99.90;;;;;;5053559;28;20050;-53
2022/03/18 07:32:45;;;;;;;11.75;3.75;;;7.60;99.90;;;;;;5052202;28;20119;-55
2022/03/18 07:35:11;;;;;;;12.48;3.90;;;8.00;99.90;;;;;;5053515;28;20096;-51
2022/03/18 07:37:36;;;;;;;16.75;4.53;;;8.50;99.90;;;;;;5052504;28;20029;-50
2022/03/18 07:40:03;;;;;;;15.88;4.63;;;8.90;99.90;;;;;;5052528;28;20086;-56
2022/03/18 07:42:49;;;;;;;18.75;4.00;;;9.60;99.90;;;;;;5052442;28;20098;-52
2022/03/18 07:45:20;;;;;;;13.43;4.07;;;10.20;99.90;;;;;;5052117;28;20031;-51
2022/03/18 07:47:49;;;;;;;12.85;3.92;;;11.10;99.90;;;;;;5052002;28;20032;-53
2022/03/18 07:50:20;;;;;;;13.75;4.63;;;12.00;99.90;;;;;;5053481;28;20476;-51
2022/03/18 07:52:49;;;;;;;10.15;3.83;;;13.10;99.90;;;;;;5052911;28;20116;-52
2022/03/18 07:55:15;;;;;;;12.48;3.47;;;14.00;99.90;;;;;;5052100;28;20104;-56
2022/03/18 07:57:41;;;;;;;8.98;3.85;;;15.10;99.90;;;;;;5053154;28;20028;-56
2022/03/18 08:00:08;;;;;;;8.60;3.33;;;16.70;99.90;;;;;;5053180;28;20025;-57
2022/03/18 08:02:34;;;;;;;14.05;3.60;;;18.00;99.90;;;;;;5053078;28;20051;-51
2022/03/18 08:04:59;;;;;;;17.35;5.47;;;18.60;99.90;;;;;;5051984;28;20025;-57
2022/03/18 08:07:26;;;;;;;11.65;3.80;;;19.20;97.80;;;;;;5051756;28;20112;-57
2022/03/18 08:09:52;;;;;;;12.25;4.38;;;19.10;95.50;;;;;;5052994;28;20035;-56
2022/03/18 08:12:18;;;;;;;9.82;4.10;;;19.70;97.10;;;;;;5053290;28;20025;-52
2022/03/18 08:14:43;;;;;;;7.78;3.60;;;20.00;92.80;;;;;;5051992;28;20021;-51
2022/03/18 08:17:09;;;;;;;12.05;4.15;;;19.30;92.00;;;;;;5053040;28;20117;-56
2022/03/18 08:19:34;;;;;;;12.52;4.05;;;18.50;92.00;;;;;;5054749;28;20032;-55
2022/03/18 08:22:01;;;;;;;9.48;4.05;;;18.40;93.20;;;;;;5057026;28;20040;-55
2022/03/18 08:24:27;;;;;;;8.68;3.88;;;19.00;92.00;;;;;;5057493;28;20079;-53
2022/03/18 08:26:54;;;;;;;11.43;4.25;;;18.00;92.40;;;;;;5056878;28;20024;-52
2022/03/18 08:29:19;;;;;;;9.95;4.22;;;18.40;92.80;;;;;;5056049;28;20037;-52
2022/03/18 08:31:45;;;;;;;8.55;3.17;;;18.90;91.60;;;;;;5056840;28;20028;-52
2022/03/18 08:34:11;;;;;;;12.35;4.55;;;19.50;94.10;;;;;;5055834;28;20033;-55
2022/03/18 08:36:36;;;;;;;12.05;3.85;;;19.90;91.50;;;;;;5056875;28;20026;-50
2022/03/18 08:39:02;;;;;;;12.80;4.90;;;20.20;86.10;;;;;;5055799;28;20029;-50
2022/03/18 08:41:27;;;;;;;12.48;3.85;;;19.50;86.60;;;;;;5056648;28;20032;-53
2022/03/18 08:43:53;;;;;;;13.65;4.07;;;18.80;89.90;;;;;;5055298;28;20116;-52
2022/03/18 08:46:19;;;;;;;10.40;4.35;;;19.10;88.90;;;;;;5056883;28;20032;-52
2022/03/18 08:48:44;;;;;;;13.88;4.95;;;19.50;90.20;;;;;;5055449;28;20067;-55
2022/03/18 08:51:10;;;;;;;14.40;5.10;;;19.20;85.00;;;;;;5056459;28;20021;-54
2022/03/18 08:53:37;;;;;;;8.32;3.92;;;18.70;88.40;;;;;;5055265;28;20504;-52
2022/03/18 08:56:03;;;;;;;18.65;6.68;;;19.60;89.60;;;;;;5055130;28;20021;-55
2022/03/18 08:58:29;;;;;;;12.27;5.43;;;19.40;86.10;;;;;;5055841;28;20025;-53
2022/03/18 09:00:54;;;;;;;12.95;5.50;;;19.80;88.40;;;;;;5055555;28;20025;-51
2022/03/18 09:03:20;;;;;;;13.65;6.30;;;19.30;82.70;;;;;;5054982;28;20047;-50
2022/03/18 09:05:46;;;;;;;9.85;5.22;;;19.40;83.80;;;;;;5055225;28;20388;-52
2022/03/18 09:08:13;;;;;;;14.85;5.53;;;19.40;88.10;;;;;;5054901;28;20060;-50
2022/03/18 09:10:38;;;;;;;12.30;6.13;;;20.40;79.10;;;;;;5054978;28;20111;-57
2022/03/18 09:13:04;;;;;;;16.45;5.25;;;20.20;78.80;;;;;;5054862;28;20063;-55
2022/03/18 09:15:31;;;;;;;8.25;5.47;;;20.50;77.60;;;;;;5056033;28;20110;-50
2022/03/18 09:17:57;;;;;;;9.90;4.40;;;20.20;80.00;;;;;;5055854;28;20044;-51
2022/03/18 09:20:22;;;;;;;17.70;6.20;;;20.00;76.50;;;;;;5054675;28;20029;-51
2022/03/18 09:22:48;;;;;;;15.70;5.22;;;19.00;77.30;;;;;;5054604;28;20017;-53
2022/03/18 09:25:14;;;;;;;14.07;5.35;;;18.40;79.30;;;;;;5054571;28;20025;-50
2022/03/18 09:27:41;;;;;;;11.70;5.32;;;18.30;78.50;;;;;;5054719;28;20107;-51
2022/03/18 09:30:10;;;;;;;14.98;5.28;;;18.60;79.40;;;;;;5054635;28;20025;-50
2022/03/18 09:32:36;;;;;;;12.02;5.10;;;18.90;76.40;;;;;;5053889;28;20045;-50
2022/03/18 09:35:01;;;;;;;15.07;5.00;;;18.50;76.70;;;;;;5055598;28;20057;-56
2022/03/18 09:37:27;;;;;;;14.23;5.25;;;18.60;77.40;;;;;;5055590;28;20021;-52
2022/03/18 09:39:53;;;;;;;12.00;4.95;;;18.20;76.80;;;;;;5055548;28;20032;-55
2022/03/18 09:42:18;;;;;;;11.65;4.70;;;17.40;78.90;;;;;;5055523;28;20036;-53
2022/03/18 09:44:45;;;;;;;12.25;4.93;;;17.60;78.50;;;;;;5054213;28;20032;-53
2022/03/18 09:47:11;;;;;;;10.82;4.57;;;18.70;77.30;;;;;;5055368;28;20029;-53
2022/03/18 09:49:43;;;;;;;7.60;4.25;;;18.60;75.20;;;;;;5054021;28;20495;-56
2022/03/18 09:52:10;;;;;;;10.40;4.88;;;18.90;73.10;;;;;;5055369;28;20365;-48
2022/03/18 09:54:35;;;;;;;11.02;4.57;;;18.90;74.50;;;;;;5053960;28;20049;-49
2022/03/18 09:57:02;;;;;;;9.45;4.07;;;17.90;74.20;;;;;;5055097;28;20060;-52
2022/03/18 09:59:28;;;;;;;18.70;4.78;;;18.20;75.90;;;;;;5055478;28;20025;-52
2022/03/18 10:02:20;;;;;;;9.43;3.90;;;18.10;76.20;;;;;;5053919;28;20093;-51
2022/03/18 10:04:52;;;;;;;8.93;4.72;;;18.80;75.20;;;;;;5054160;28;20032;-50
2022/03/18 10:07:18;;;;;;;8.13;3.72;;;19.40;73.30;;;;;;5054581;28;20115;-50
2022/03/18 10:09:43;;;;;;;14.57;3.90;;;17.80;72.30;;;;;;5054869;28;20103;-48
2022/03/18 10:12:31;;;;;;;9.55;4.15;;;16.70;75.40;;;;;;5053701;28;20028;-48
2022/03/18 10:15:39;;;;;;;9.05;3.17;;;16.10;75.40;;;;;;5054977;28;20114;-52
2022/03/18 10:18:13;;;;;;;6.72;3.10;;;15.70;74.40;;;;;;5055256;28;20063;-50
2022/03/18 10:20:41;;;;;;;12.55;4.45;;;15.10;75.10;;;;;;5053603;28;20028;-49
2022/03/18 10:23:16;;;;;;;12.73;3.40;;;14.60;75.80;;;;;;5053433;28;20071;-51
2022/03/18 10:25:50;;;;;;;8.43;3.03;;;14.20;76.60;;;;;;5053388;28;20027;-48
2022/03/18 10:28:36;;;;;;;9.77;3.33;;;14.10;79.70;;;;;;5054476;28;20028;-54
2022/03/18 10:31:20;;;;;;;13.55;3.50;;;13.90;79.40;;;;;;5055003;28;20055;-50
2022/03/18 10:39:24;;;;;;;9.13;3.60;;;13.70;80.90;;;;;;5054988;28;20143;-48
2022/03/18 10:41:50;;;;;;;8.95;3.50;;;13.40;81.00;;;;;;5053672;28;20025;-46
2022/03/18 10:44:17;;;;;;;9.82;3.80;;;13.10;81.60;;;;;;5054539;28;20032;-46
2022/03/18 10:46:43;;;;;;;8.73;3.75;;;13.00;80.90;;;;;;5054186;28;20111;-47
2022/03/18 10:49:10;;;;;;;4.72;2.50;;;12.90;83.40;;;;;;5052927;28;20025;-49
2022/03/18 10:51:37;;;;;;;6.40;3.50;;;12.90;85.60;;;;;;5054365;28;20021;-49
2022/03/18 10:54:04;;;;;;;9.57;3.08;;;13.00;82.40;;;;;;5052852;28;20029;-48
2022/03/18 10:56:53;;;;;;;8.30;3.05;;;12.70;80.60;;;;;;5052736;28;20455;-47
2022/03/18 10:59:19;;;;;;;7.55;2.90;;;12.70;80.80;;;;;;5053728;28;20031;-49
2022/03/18 11:01:51;;;;;;;8.93;3.20;;;12.50;82.30;;;;;;5053045;28;20115;-48
2022/03/18 11:04:17;;;;;;;11.73;4.25;;;12.70;84.60;;;;;;5054319;28;20020;-49
2022/03/18 11:07:29;;;;;;;10.20;3.90;;;12.50;83.00;;;;;;5052698;28;20106;-56
2022/03/18 11:11:06;;;;;;;11.98;3.40;;;12.70;85.50;;;;;;5053742;28;20025;-49
2022/03/18 11:12:20;;;;;;;13.65;3.38;;;13.10;87.90;;;;;;5053638;28;20032;-50
2022/03/18 11:14:47;;;;;;;8.93;3.20;;;12.90;81.60;;;;;;5053393;28;20025;-51
2022/03/18 11:17:13;;;;;;;5.47;3.08;;;12.50;82.70;;;;;;5053616;28;20226;-56
2022/03/18 11:19:39;;;;;;;8.27;3.20;;;12.60;83.30;;;;;;5052439;28;20127;-53
2022/03/18 11:22:05;;;;;;;9.32;3.60;;;12.50;82.80;;;;;;5052375;28;20040;-48
2022/03/18 11:24:32;;;;;;;7.88;3.33;;;12.40;85.40;;;;;;5053714;28;20025;-48
2022/03/18 11:26:58;;;;;;;14.10;3.55;;;12.30;88.50;;;;;;5053543;28;20021;-50
2022/03/18 11:29:26;;;;;;;9.50;3.72;;;12.40;90.20;;;;;;5054256;28;20040;-50
2022/03/18 11:32:09;;;;;;;9.98;3.63;;;12.30;89.10;;;;;;5053588;28;20017;-49
2022/03/18 11:34:55;;;;;;;12.48;4.32;;;12.50;90.20;;;;;;5053390;28;20027;-49
2022/03/18 11:37:21;;;;;;;11.20;3.03;;;12.50;88.70;;;;;;5053499;28;20021;-49
2022/03/18 11:39:47;;;;;;;7.78;3.78;;;12.50;90.50;;;;;;5053031;28;20031;-49
2022/03/18 11:42:20;;;;;;;9.30;3.10;;;12.70;90.40;;;;;;5052416;28;20115;-50
2022/03/18 11:44:52;;;;;;;8.95;3.10;;;12.80;87.30;;;;;;5052081;28;20044;-49
2022/03/18 11:47:20;;;;;;;11.57;3.30;;;12.70;84.20;;;;;;5052632;28;20044;-50
2022/03/18 11:49:49;;;;;;;8.52;3.60;;;12.60;86.40;;;;;;5053719;28;20108;-48
2022/03/18 11:52:16;;;;;;;10.38;3.90;;;12.60;85.90;;;;;;5053288;28;20044;-49
2022/03/18 11:55:07;;;;;;;7.97;3.78;;;12.50;87.40;;;;;;5052558;28;20085;-56
2022/03/18 11:57:34;;;;;;;9.07;3.00;;;12.40;89.60;;;;;;5053223;28;20021;-57
2022/03/18 12:00:05;;;;;;;10.20;3.28;;;12.50;88.80;;;;;;5053545;28;20266;-49
2022/03/18 12:02:35;;;;;;;9.63;3.30;;;12.60;86.90;;;;;;5052066;28;20028;-51
2022/03/18 12:05:20;;;;;;;14.38;3.38;;;12.50;89.10;;;;;;5053170;28;20036;-49
2022/03/18 12:07:48;;;;;;;7.15;3.25;;;12.60;90.90;;;;;;5052421;28;20021;-51
2022/03/18 12:10:15;;;;;;;6.90;3.28;;;12.80;90.20;;;;;;5053381;28;20052;-49
2022/03/18 12:12:46;;;;;;;6.65;3.30;;;12.90;89.90;;;;;;5052041;28;20021;-49
2022/03/18 12:15:18;;;;;;;8.13;3.13;;;12.70;87.90;;;;;;5052994;28;20013;-47
2022/03/18 12:17:44;;;;;;;;;;;12.60;87.50;;;;;;5052498;28;20115;-48
2022/03/18 12:20:13;;;;;;;9.95;3.20;;;12.50;87.60;;;;;;5052246;28;19905;-48
2022/03/18 12:22:41;;;;;;;9.38;3.55;;;12.40;89.20;;;;;;5051792;28;20029;-48
2022/03/18 12:25:08;;;;;;;9.55;2.95;;;12.30;89.00;;;;;;5052886;28;20052;-48
2022/03/18 12:27:39;;;;;;;7.05;2.83;;;12.30;86.50;;;;;;5051527;28;20033;-50
2022/03/18 12:30:10;;;;;;;6.32;2.88;;;12.30;88.00;;;;;;5051993;28;20391;-48
2022/03/18 12:32:47;;;;;;;7.07;2.90;;;12.50;89.30;;;;;;5052000;28;20044;-53
2022/03/18 12:35:13;;;;;;;7.88;3.47;;;12.50;86.20;;;;;;5052832;28;20043;-50
2022/03/18 12:37:41;;;;;;;14.30;3.38;;;12.40;85.90;;;;;;5051469;28;20090;-48
2022/03/18 12:40:19;;;;;;;8.30;3.42;;;12.40;86.10;;;;;;5053046;28;20021;-49
2022/03/18 12:42:56;;;;;;;8.95;3.78;;;12.40;84.50;;;;;;5051580;28;20152;-51
2022/03/18 12:45:24;;;;;;;6.80;3.25;;;12.30;86.30;;;;;;5052751;28;20040;-49
2022/03/18 12:47:53;;;;;;;11.13;3.05;;;12.30;88.10;;;;;;5051348;28;20029;-49
2022/03/18 12:50:18;;;;;;;7.40;3.03;;;12.60;89.30;;;;;;5051710;28;20208;-49
2022/03/18 12:52:44;;;;;;;9.57;2.90;;;12.70;85.50;;;;;;5051530;28;20141;-48
2022/03/18 12:55:17;;;;;;;6.80;2.85;;;12.50;86.20;;;;;;5053243;28;20122;-48
2022/03/18 12:57:43;;;;;;;7.38;2.63;;;12.60;85.50;;;;;;5052687;28;20025;-50
2022/03/18 13:00:11;;;;;;;5.30;2.13;;;12.60;83.70;;;;;;5052887;28;20048;-51
2022/03/18 13:02:41;;;;;;;10.73;3.17;;;12.60;85.30;;;;;;5052603;28;20028;-52
2022/03/18 13:05:08;;;;;;;6.70;3.00;;;12.80;87.00;;;;;;5053520;28;20226;-50
2022/03/18 13:07:34;;;;;;;7.38;2.58;;;12.70;84.90;;;;;;5056401;28;20025;-49